createdAt,value
2019-03-08T00:00:40.441Z,2.10
2019-03-08T00:03:28.526Z,2.40
2019-03-08T00:06:16.529Z,1.90
2019-03-08T00:09:06.350Z,1.50
2019-03-08T00:11:54.514Z,2.23
2019-03-08T00:14:42.505Z,1.10
2019-03-08T00:17:30.510Z,1.80
2019-03-08T00:20:18.591Z,3.17
2019-03-08T00:23:06.974Z,2.53
2019-03-08T00:25:54.977Z,4.90
2019-03-08T00:28:42.991Z,3.50
2019-03-08T00:31:31.497Z,2.50
2019-03-08T00:34:19.498Z,1.07
2019-03-08T00:37:09.089Z,0.93
2019-03-08T00:39:49.780Z,3.60
2019-03-08T00:42:30.522Z,3.60
2019-03-08T00:45:11.751Z,2.87
2019-03-08T00:47:52.122Z,6.90
2019-03-08T00:50:32.654Z,4.90
2019-03-08T00:53:13.158Z,1.40
2019-03-08T00:55:53.814Z,2.20
2019-03-08T00:58:34.402Z,4.70
2019-03-08T01:01:15.161Z,3.77
2019-03-08T01:03:55.846Z,3.23
2019-03-08T01:06:36.750Z,2.30
2019-03-08T01:09:17.819Z,3.23
2019-03-08T01:11:59.126Z,1.53
2019-03-08T01:14:40.198Z,3.63
2019-03-08T01:17:20.741Z,6.93
2019-03-08T01:20:01.518Z,4.50
2019-03-08T01:22:42.630Z,5.00
2019-03-08T01:25:23.189Z,1.50
2019-03-08T01:28:03.841Z,4.40
2019-03-08T01:30:44.442Z,3.70
2019-03-08T01:33:25.171Z,3.23
2019-03-08T01:36:05.933Z,1.80
2019-03-08T01:38:46.715Z,2.70
2019-03-08T01:41:27.150Z,4.23
2019-03-08T01:44:07.964Z,1.90
2019-03-08T01:46:48.659Z,1.83
2019-03-08T01:49:29.676Z,2.10
2019-03-08T01:52:10.134Z,3.27
2019-03-08T01:54:51.165Z,2.50
2019-03-08T01:57:31.803Z,2.10
2019-03-08T02:00:12.859Z,1.60
2019-03-08T02:02:54.231Z,3.83
2019-03-08T02:05:35.115Z,2.40
2019-03-08T02:08:15.901Z,3.90
2019-03-08T02:10:56.510Z,2.70
2019-03-08T02:13:37.003Z,3.00
2019-03-08T02:16:17.880Z,1.67
2019-03-08T02:18:58.537Z,4.00
2019-03-08T02:21:39.421Z,3.40
2019-03-08T02:24:20.163Z,4.00
2019-03-08T02:27:00.768Z,3.43
2019-03-08T02:29:41.567Z,1.80
2019-03-08T02:32:22.192Z,2.53
2019-03-08T02:35:03.046Z,1.60
2019-03-08T02:37:43.526Z,1.13
2019-03-08T02:40:24.050Z,4.30
2019-03-08T02:43:04.930Z,3.10
2019-03-08T02:45:45.537Z,2.17
2019-03-08T02:48:25.969Z,2.50
2019-03-08T02:51:06.490Z,2.80
2019-03-08T02:53:47.251Z,2.07
2019-03-08T02:56:27.940Z,2.30
2019-03-08T02:59:09.443Z,1.90
2019-03-08T03:01:50.140Z,2.07
2019-03-08T03:04:30.922Z,2.20
2019-03-08T03:07:11.595Z,1.93
2019-03-08T03:09:52.494Z,1.40
2019-03-08T03:12:33.016Z,1.30
2019-03-08T03:15:13.589Z,2.03
2019-03-08T03:17:54.631Z,1.90
2019-03-08T03:20:35.787Z,3.03
2019-03-08T03:23:17.102Z,3.43
2019-03-08T03:25:57.806Z,4.80
2019-03-08T03:28:38.522Z,3.43
2019-03-08T03:31:19.133Z,1.37
2019-03-08T03:33:59.802Z,2.50
2019-03-08T03:36:40.421Z,1.50
2019-03-08T03:39:21.246Z,1.43
2019-03-08T03:42:02.284Z,3.27
2019-03-08T03:44:42.678Z,1.53
2019-03-08T03:47:23.336Z,1.33
2019-03-08T03:50:04.172Z,2.60
2019-03-08T03:52:45.109Z,1.23
2019-03-08T03:55:25.833Z,1.57
2019-03-08T03:58:06.436Z,3.43
2019-03-08T04:00:47.250Z,2.00
2019-03-08T04:03:28.262Z,3.53
2019-03-08T04:06:09.792Z,4.63
2019-03-08T04:08:50.758Z,1.30
2019-03-08T04:11:31.287Z,2.00
2019-03-08T04:14:11.924Z,2.87
2019-03-08T04:16:53.156Z,1.70
2019-03-08T04:19:33.819Z,1.73
2019-03-08T04:22:14.282Z,1.63
2019-03-08T04:24:54.999Z,2.67
2019-03-08T04:27:35.754Z,3.90
2019-03-08T04:30:16.550Z,4.97
2019-03-08T04:32:57.194Z,1.33
2019-03-08T04:35:38.024Z,2.80
2019-03-08T04:38:18.647Z,2.50
2019-03-08T04:40:59.446Z,4.17
2019-03-08T04:43:40.254Z,2.30
2019-03-08T04:46:21.104Z,2.00
2019-03-08T04:49:01.703Z,1.87
2019-03-08T04:51:42.652Z,2.40
2019-03-08T04:54:23.807Z,1.17
2019-03-08T04:57:05.130Z,2.33
2019-03-08T04:59:46.277Z,3.00
2019-03-08T05:02:26.963Z,2.80
2019-03-08T05:05:07.674Z,2.37
2019-03-08T05:07:48.346Z,4.93
2019-03-08T05:10:29.019Z,1.50
2019-03-08T05:13:09.582Z,1.20
2019-03-08T05:15:50.210Z,1.27
2019-03-08T05:18:30.633Z,1.47
2019-03-08T05:21:11.395Z,2.43
2019-03-08T05:23:52.148Z,1.77
2019-03-08T05:26:33.138Z,2.63
2019-03-08T05:29:13.851Z,1.73
2019-03-08T05:31:54.466Z,1.37
2019-03-08T05:34:35.299Z,1.37
2019-03-08T05:37:15.893Z,2.37
2019-03-08T05:39:56.652Z,2.30
2019-03-08T05:42:38.258Z,1.40
2019-03-08T05:45:19.240Z,1.77
2019-03-08T05:48:00.550Z,4.27
2019-03-08T05:50:41.238Z,2.33
2019-03-08T05:53:21.643Z,2.70
2019-03-08T05:56:02.230Z,3.63
2019-03-08T05:58:43.316Z,4.50
2019-03-08T06:01:23.788Z,4.40
2019-03-08T06:04:04.500Z,5.67
2019-03-08T06:06:45.120Z,6.63
2019-03-08T06:09:26.120Z,3.20
2019-03-08T06:12:06.854Z,3.33
2019-03-08T06:14:47.792Z,8.10
2019-03-08T06:17:28.559Z,3.23
2019-03-08T06:20:09.359Z,4.47
2019-03-08T06:22:49.979Z,2.63
2019-03-08T06:25:30.872Z,4.20
2019-03-08T06:28:11.505Z,4.13
2019-03-08T06:30:52.111Z,4.13
2019-03-08T06:33:32.704Z,3.97
2019-03-08T06:36:13.440Z,5.03
2019-03-08T06:38:54.710Z,2.97
2019-03-08T06:44:48.005Z,3.10
2019-03-08T06:47:28.703Z,5.20
2019-03-08T06:50:09.509Z,3.60
2019-03-08T06:52:51.120Z,5.03
2019-03-08T06:55:32.319Z,3.70
2019-03-08T06:58:14.387Z,4.03
2019-03-08T07:01:14.427Z,5.37
2019-03-08T07:03:54.955Z,7.47
2019-03-08T07:06:35.928Z,4.33
2019-03-08T07:09:16.795Z,5.60
2019-03-08T07:11:57.641Z,4.43
2019-03-08T07:14:38.759Z,4.50
2019-03-08T07:17:20.568Z,6.10
2019-03-08T07:23:33.406Z,7.10
2019-03-08T07:26:23.103Z,5.23
2019-03-08T07:29:14.466Z,6.00
2019-03-08T07:32:14.807Z,6.57
2019-03-08T07:35:15.250Z,5.67
2019-03-08T07:38:20.892Z,6.87
2019-03-08T07:41:12.915Z,11.53
2019-03-08T07:44:13.471Z,7.13
2019-03-08T07:47:01.558Z,7.27
2019-03-08T07:50:01.484Z,7.07
2019-03-08T07:53:01.975Z,6.63
2019-03-08T07:56:01.885Z,6.80
2019-03-08T07:58:52.557Z,11.03
2019-03-08T08:01:40.802Z,6.43
2019-03-08T08:04:41.195Z,10.40
2019-03-08T08:07:46.997Z,10.90
2019-03-08T08:10:47.239Z,11.20
2019-03-08T08:13:45.101Z,9.93
2019-03-08T08:16:48.337Z,6.80
2019-03-08T08:19:49.771Z,6.67
2019-03-08T08:22:41.357Z,9.43
2019-03-08T08:25:36.792Z,6.63
2019-03-08T08:28:24.295Z,9.80
2019-03-08T08:31:24.355Z,10.83
2019-03-08T08:34:14.976Z,7.50
2019-03-08T08:37:15.068Z,12.47
2019-03-08T08:40:06.578Z,8.10
2019-03-08T08:43:06.057Z,8.43
2019-03-08T08:46:06.304Z,8.47
2019-03-08T08:49:06.673Z,7.07
2019-03-08T08:52:12.673Z,10.93
2019-03-08T08:55:13.971Z,10.37
2019-03-08T08:58:07.963Z,8.03
2019-03-08T09:01:07.435Z,10.97
2019-03-08T09:04:04.715Z,7.03
2019-03-08T09:07:04.295Z,9.53
2019-03-08T09:10:04.829Z,7.07
2019-03-08T09:12:57.491Z,7.33
2019-03-08T09:19:05.942Z,10.43
2019-03-08T09:22:06.478Z,9.57
2019-03-08T09:25:06.387Z,6.13
2019-03-08T09:27:53.549Z,5.47
2019-03-08T09:30:53.639Z,3.43
2019-03-08T09:33:44.145Z,8.57
2019-03-08T09:36:44.168Z,8.33
2019-03-08T09:39:44.296Z,5.83
2019-03-08T09:42:46.576Z,7.37
2019-03-08T09:45:52.509Z,6.00
2019-03-08T09:48:48.654Z,2.80
2019-03-08T09:51:31.983Z,9.23
2019-03-08T09:54:18.319Z,7.63
2019-03-08T09:57:18.357Z,8.03
2019-03-08T10:00:19.888Z,9.33
2019-03-08T10:03:20.489Z,17.03
2019-03-08T10:06:09.668Z,8.53
2019-03-08T10:08:59.858Z,5.70
2019-03-08T10:12:03.360Z,3.17
2019-03-08T10:14:58.871Z,6.70
2019-03-08T10:17:58.674Z,7.60
2019-03-08T10:20:59.231Z,9.03
2019-03-08T10:23:59.262Z,9.93
2019-03-08T10:26:44.394Z,7.97
2019-03-08T10:29:41.255Z,13.00
2019-03-08T10:32:48.334Z,4.40
2019-03-08T10:35:55.697Z,10.70
2019-03-08T10:39:02.859Z,11.20
2019-03-08T10:42:10.262Z,8.80
2019-03-08T10:45:17.343Z,9.77
2019-03-08T10:48:22.667Z,10.57
2019-03-08T10:51:29.755Z,9.10
2019-03-08T10:54:36.862Z,18.93
2019-03-08T10:57:43.994Z,8.50
2019-03-08T11:00:51.341Z,6.97
2019-03-08T11:03:58.412Z,13.67
2019-03-08T11:07:05.563Z,8.13
2019-03-08T11:10:01.316Z,5.13
2019-03-08T11:13:08.405Z,14.73
2019-03-08T11:16:15.814Z,12.30
2019-03-08T11:19:23.277Z,10.20
2019-03-08T11:22:30.443Z,9.10
2019-03-08T11:25:37.571Z,12.70
2019-03-08T11:28:44.657Z,12.40
2019-03-08T11:31:52.003Z,11.30
2019-03-08T11:34:59.146Z,9.80
2019-03-08T11:38:02.871Z,13.13
2019-03-08T11:40:55.459Z,9.60
2019-03-08T11:43:49.295Z,10.63
2019-03-08T11:46:49.222Z,5.90
2019-03-08T11:49:39.077Z,6.80
2019-03-08T11:52:42.704Z,7.40
2019-03-08T11:55:45.017Z,11.03
2019-03-08T11:58:45.510Z,8.17
2019-03-08T12:01:45.679Z,14.90
2019-03-08T12:04:48.732Z,14.97
2019-03-08T12:07:35.214Z,10.73
2019-03-08T12:10:34.855Z,10.30
2019-03-08T12:13:24.683Z,11.93
2019-03-08T12:16:25.133Z,10.63
2019-03-08T12:19:24.293Z,14.13
2019-03-08T12:22:15.970Z,8.40
2019-03-08T12:25:19.218Z,13.63
2019-03-08T12:28:23.005Z,16.00
2019-03-08T12:31:23.329Z,18.10
2019-03-08T12:34:23.755Z,9.20
2019-03-08T12:40:21.137Z,9.53
2019-03-08T12:43:20.859Z,11.87
2019-03-08T12:46:09.392Z,10.60
2019-03-08T12:49:09.268Z,14.93
2019-03-08T12:52:08.998Z,12.43
2019-03-08T12:54:56.334Z,14.70
2019-03-08T12:58:02.246Z,12.10
2019-03-08T13:00:52.702Z,17.00
2019-03-08T13:03:52.490Z,13.87
2019-03-08T13:06:42.813Z,12.90
2019-03-08T13:09:42.704Z,10.47
2019-03-08T13:12:23.799Z,4.47
2019-03-08T13:15:04.881Z,10.43
2019-03-08T13:17:45.699Z,6.20
2019-03-08T13:20:26.614Z,9.20
2019-03-08T13:23:07.299Z,7.60
2019-03-08T13:25:48.391Z,8.97
2019-03-08T13:28:28.915Z,11.43
2019-03-08T13:31:09.600Z,11.17
2019-03-08T13:33:50.495Z,12.87
2019-03-08T13:36:31.757Z,7.57
2019-03-08T13:39:12.239Z,9.80
2019-03-08T13:41:52.839Z,10.00
2019-03-08T13:44:33.643Z,9.20
2019-03-08T13:47:14.486Z,13.27
2019-03-08T13:49:55.321Z,11.80
2019-03-08T13:52:36.222Z,12.53
2019-03-08T13:55:16.839Z,8.67
2019-03-08T13:57:57.596Z,6.47
2019-03-08T14:00:38.265Z,5.83
2019-03-08T14:03:19.086Z,13.40
2019-03-08T14:06:00.283Z,8.37
2019-03-08T14:08:41.048Z,11.27
2019-03-08T14:11:21.538Z,7.27
2019-03-08T14:14:02.636Z,14.07
2019-03-08T14:16:43.167Z,10.70
2019-03-08T14:19:23.632Z,9.77
2019-03-08T14:22:04.662Z,14.17
2019-03-08T14:24:45.731Z,7.00
2019-03-08T14:27:26.495Z,10.30
2019-03-08T14:30:07.114Z,10.03
2019-03-08T14:32:47.618Z,9.73
2019-03-08T14:35:29.782Z,6.47
2019-03-08T14:38:11.303Z,12.33
2019-03-08T14:43:54.772Z,10.27
2019-03-08T14:46:43.015Z,12.57
2019-03-08T14:49:24.626Z,10.00
2019-03-08T14:52:05.091Z,8.90
2019-03-08T14:54:46.462Z,9.90
2019-03-08T14:57:28.254Z,11.43
2019-03-08T15:00:08.963Z,13.83
2019-03-08T15:02:49.564Z,15.00
2019-03-08T15:05:30.229Z,8.67
2019-03-08T15:08:13.634Z,5.10
2019-03-08T15:10:53.789Z,13.07
2019-03-08T15:13:40.433Z,7.03
2019-03-08T15:16:21.156Z,7.93
2019-03-08T15:19:03.697Z,14.40
2019-03-08T15:21:48.271Z,9.40
2019-03-08T15:24:27.280Z,10.63
2019-03-08T15:27:08.289Z,8.60
2019-03-08T15:29:54.406Z,10.00
2019-03-08T15:32:35.088Z,10.67
2019-03-08T15:35:16.081Z,7.90
2019-03-08T15:37:56.909Z,10.30
2019-03-08T15:40:37.707Z,8.70
2019-03-08T15:43:18.420Z,8.97
2019-03-08T15:45:59.270Z,5.70
2019-03-08T15:48:40.017Z,12.10
2019-03-08T15:51:24.714Z,10.67
2019-03-08T15:54:03.279Z,10.30
2019-03-08T15:56:43.967Z,12.83
2019-03-08T15:59:25.015Z,8.90
2019-03-08T16:02:06.331Z,7.40
2019-03-08T16:04:50.152Z,11.80
2019-03-08T16:07:31.315Z,7.07
2019-03-08T16:10:12.080Z,14.03
2019-03-08T16:12:52.819Z,9.30
2019-03-08T16:15:33.482Z,16.03
2019-03-08T16:18:14.358Z,11.20
2019-03-08T16:20:55.172Z,10.00
2019-03-08T16:23:36.109Z,8.93
2019-03-08T16:26:16.838Z,9.70
2019-03-08T16:28:57.633Z,8.70
2019-03-08T16:31:59.830Z,8.60
2019-03-08T16:34:39.952Z,6.97
2019-03-08T16:37:25.418Z,5.73
2019-03-08T16:40:25.509Z,14.37
2019-03-08T16:46:31.198Z,13.03
2019-03-08T16:49:22.024Z,12.03
2019-03-08T16:52:23.310Z,12.70
2019-03-08T16:55:22.855Z,11.87
2019-03-08T16:58:22.502Z,9.53
2019-03-08T17:01:22.129Z,10.60
2019-03-08T17:04:13.983Z,11.40
2019-03-08T17:07:02.711Z,8.73
2019-03-08T17:10:02.780Z,7.10
2019-03-08T17:13:02.767Z,7.20
2019-03-08T17:16:02.293Z,9.17
2019-03-08T17:19:11.938Z,12.83
2019-03-08T17:22:02.328Z,5.57
2019-03-08T17:25:01.867Z,10.53
2019-03-08T17:28:01.252Z,9.53
2019-03-08T17:30:50.919Z,10.10
2019-03-08T17:33:51.626Z,12.40
2019-03-08T17:36:40.115Z,5.87
2019-03-08T17:39:39.631Z,5.00
2019-03-08T17:42:40.397Z,15.17
2019-03-08T17:45:40.577Z,4.90
2019-03-08T17:48:40.892Z,7.40
2019-03-08T17:51:41.398Z,4.57
2019-03-08T17:54:44.616Z,11.40
2019-03-08T17:57:44.119Z,7.10
2019-03-08T18:00:33.008Z,7.77
2019-03-08T18:03:20.117Z,7.43
2019-03-08T18:06:20.293Z,4.80
2019-03-08T18:09:20.530Z,12.37
2019-03-08T18:12:09.695Z,9.57
2019-03-08T18:15:09.213Z,8.43
2019-03-08T18:18:08.739Z,4.20
2019-03-08T18:21:15.268Z,16.30
2019-03-08T18:24:23.370Z,11.83
2019-03-08T18:27:06.156Z,12.63
2019-03-08T18:30:06.393Z,7.43
2019-03-08T18:32:59.128Z,13.10
2019-03-08T18:35:50.961Z,11.70
2019-03-08T18:38:50.551Z,10.00
2019-03-08T18:41:48.060Z,11.50
2019-03-08T18:44:44.295Z,11.03
2019-03-08T18:47:46.971Z,12.27
2019-03-08T18:50:47.086Z,11.40
2019-03-08T18:53:47.232Z,18.60
2019-03-08T18:56:38.224Z,12.97
2019-03-08T18:59:26.580Z,11.50
2019-03-08T19:02:26.960Z,11.30
2019-03-08T19:05:26.459Z,9.87
2019-03-08T19:08:26.278Z,12.33
2019-03-08T19:11:26.417Z,12.90
2019-03-08T19:17:38.790Z,16.87
2019-03-08T19:20:38.484Z,9.00
2019-03-08T19:23:38.749Z,14.90
2019-03-08T19:26:36.100Z,13.57
2019-03-08T19:29:24.632Z,17.23
2019-03-08T19:32:11.626Z,10.57
2019-03-08T19:35:02.525Z,11.27
2019-03-08T19:38:05.333Z,18.00
2019-03-08T19:41:05.500Z,10.67
2019-03-08T19:43:59.036Z,11.40
2019-03-08T19:46:59.378Z,11.20
2019-03-08T19:49:58.918Z,11.53
2019-03-08T19:52:58.924Z,15.50
2019-03-08T19:55:59.203Z,9.90
2019-03-08T19:58:58.713Z,6.17
2019-03-08T20:01:48.244Z,11.70
2019-03-08T20:04:48.589Z,14.80
2019-03-08T20:07:48.890Z,5.43
2019-03-08T20:10:43.076Z,9.80
2019-03-08T20:13:35.184Z,12.10
2019-03-08T20:16:39.924Z,10.93
2019-03-08T20:19:27.072Z,9.20
2019-03-08T20:22:18.155Z,8.83
2019-03-08T20:25:09.468Z,8.10
2019-03-08T20:27:59.565Z,9.83
2019-03-08T20:30:54.264Z,7.97
2019-03-08T20:33:54.568Z,9.70
2019-03-08T20:36:54.283Z,5.67
2019-03-08T20:39:47.097Z,9.60
2019-03-08T20:42:40.494Z,9.93
2019-03-08T20:45:40.545Z,8.00
2019-03-08T20:48:21.083Z,10.97
2019-03-08T20:51:01.922Z,9.50
2019-03-08T20:53:42.686Z,9.83
2019-03-08T20:56:23.844Z,8.53
2019-03-08T20:59:04.290Z,8.50
2019-03-08T21:01:45.152Z,6.73
2019-03-08T21:04:25.713Z,7.40
2019-03-08T21:07:06.492Z,7.40
2019-03-08T21:09:47.207Z,5.83
2019-03-08T21:12:28.035Z,10.20
2019-03-08T21:15:08.691Z,8.10
2019-03-08T21:17:49.596Z,6.70
2019-03-08T21:20:30.381Z,9.13
2019-03-08T21:23:11.828Z,7.70
2019-03-08T21:25:52.257Z,6.67
2019-03-08T21:28:33.257Z,8.80
2019-03-08T21:31:14.139Z,7.83
2019-03-08T21:33:55.261Z,8.67
2019-03-08T21:36:35.852Z,8.50
2019-03-08T21:39:16.509Z,5.80
2019-03-08T21:41:57.405Z,5.33
2019-03-08T21:44:38.102Z,6.93
2019-03-08T21:47:18.476Z,6.03
2019-03-08T21:49:58.930Z,4.30
2019-03-08T21:52:40.425Z,5.57
2019-03-08T21:55:21.053Z,4.67
2019-03-08T21:58:01.807Z,5.23
2019-03-08T22:00:42.456Z,7.10
2019-03-08T22:03:22.832Z,9.23
2019-03-08T22:06:03.428Z,6.83
2019-03-08T22:11:45.682Z,8.17
2019-03-08T22:14:26.970Z,4.03
2019-03-08T22:17:07.675Z,11.50
2019-03-08T22:19:56.408Z,7.07
2019-03-08T22:22:44.748Z,8.17
2019-03-08T22:28:26.017Z,4.93
2019-03-08T22:31:14.297Z,6.37
2019-03-08T22:33:43.443Z,7.80
2019-03-08T22:36:31.450Z,5.90
2019-03-08T22:39:21.200Z,7.53
2019-03-08T22:42:09.199Z,3.83
2019-03-08T22:44:57.211Z,6.73
2019-03-08T22:47:45.220Z,10.03
2019-03-08T22:50:33.579Z,4.60
2019-03-08T22:53:21.660Z,5.67
2019-03-08T22:56:09.934Z,7.60
2019-03-08T22:58:57.941Z,4.80
2019-03-08T23:01:48.694Z,8.03
2019-03-08T23:04:37.115Z,4.60
2019-03-08T23:07:25.427Z,6.00
2019-03-08T23:10:13.587Z,8.10
2019-03-08T23:13:01.589Z,6.83
2019-03-08T23:15:49.599Z,7.97
2019-03-08T23:18:37.613Z,6.53
2019-03-08T23:21:25.941Z,10.47
2019-03-08T23:24:13.960Z,8.77
2019-03-08T23:27:21.050Z,6.97
2019-03-08T23:30:28.257Z,4.90
2019-03-08T23:33:16.259Z,10.23
2019-03-08T23:36:04.282Z,7.53
2019-03-08T23:38:52.281Z,5.83
2019-03-08T23:41:35.366Z,8.30
2019-03-08T23:44:16.172Z,7.80
2019-03-08T23:46:57.076Z,10.63
2019-03-08T23:49:37.873Z,5.30
2019-03-08T23:52:18.708Z,6.17
2019-03-08T23:54:59.457Z,5.43
2019-03-08T23:57:39.965Z,8.33
